Knickerbocker — WDC7987 — position and weather

sailwx.info

Track history (hours):
 
Tides and Currents Weather Stations Pressure Air Temp Water Temp Dewpoint Dewpoint Depression Visibility Wind Speed Wind Dir Waves Ship Positions

Knickerbocker

Owner: Christopher Corp., Newport, RI. More information available from US FCC via Universal Licensing System and Coast Guard Vessel Documentation Center.

Last reported at 2017-Feb-24 21:34 UTC. Time now 2017-Feb-24 21:38 UTC.
Position N 17°01' W 061°46'.

Length 36 m; draft 3.6 m.

Type: Sailing vessel. MMSI: 367079960.

Date/timePositionNaut miles runAvg speedWind from/ knotsBaromVisibWave heightAir tempDewpointWater temp
2017-Feb-24 21:34N 17°01' W 061°46'1 1.5
2017-Feb-24 20:33N 16°60' W 061°45'6 6.0
2017-Feb-24 19:33N 17°04' W 061°41'0 0.3
2017-Feb-24 18:32N 17°05' W 061°41'0 0.0
2017-Feb-24 17:31N 17°05' W 061°41'0 0.0
2017-Feb-24 16:32N 17°05' W 061°41'0 0.0
2017-Feb-24 15:31N 17°05' W 061°41'0 0.0
2017-Feb-24 14:31N 17°05' W 061°41'0 0.0
2017-Feb-24 13:32N 17°05' W 061°41'0 0.0
2017-Feb-24 12:31N 17°05' W 061°41'0 0.0
2017-Feb-24 11:31N 17°05' W 061°41'0 0.0
2017-Feb-24 10:31N 17°05' W 061°41'0 0.0
2017-Feb-24 09:32N 17°05' W 061°41'0 0.0
2017-Feb-24 08:32N 17°05' W 061°41'0 0.0
2017-Feb-24 07:31N 17°05' W 061°41'0 0.0
2017-Feb-24 06:32N 17°05' W 061°41'0 0.0
2017-Feb-24 05:31N 17°05' W 061°41'0 0.0
2017-Feb-24 04:31N 17°05' W 061°41'0 0.0
2017-Feb-24 03:31N 17°05' W 061°41'0 0.0
2017-Feb-24 02:31N 17°05' W 061°41'0 0.0
2017-Feb-24 01:25N 17°05' W 061°41'0 0.0
2017-Feb-24 00:29N 17°05' W 061°41'0 0.0
2017-Feb-23 23:31N 17°05' W 061°41'0 0.0
2017-Feb-23 22:32N 17°05' W 061°41'0 0.0
2017-Feb-23 21:31N 17°05' W 061°41'0 0.0
2017-Feb-23 20:32N 17°05' W 061°41'0 0.0
2017-Feb-23 19:31N 17°05' W 061°41'0 0.0
2017-Feb-23 18:31N 17°05' W 061°41'0 0.0
2017-Feb-23 17:31N 17°05' W 061°41'0 0.0
2017-Feb-23 16:31N 17°05' W 061°41'0 0.0
2017-Feb-23 15:31N 17°05' W 061°41'0 0.0
2017-Feb-23 14:31N 17°05' W 061°41'1 0.8
2017-Feb-23 13:33N 17°04' W 061°40'7 7.4
2017-Feb-23 12:33N 16°60' W 061°47'3 3.3
2017-Feb-23 11:32N 17°01' W 061°50'0 0.0
2017-Feb-23 10:32N 17°01' W 061°50'0 0.0
2017-Feb-23 09:32N 17°01' W 061°50'0 0.0
2017-Feb-23 08:32N 17°01' W 061°50'0 0.0
2017-Feb-23 07:32N 17°01' W 061°50'0 0.0
2017-Feb-23 06:32N 17°01' W 061°50'0 0.0
2017-Feb-23 05:32N 17°01' W 061°50'0 0.0
2017-Feb-23 04:32N 17°01' W 061°50'0 0.0
2017-Feb-23 03:32N 17°01' W 061°50'0 0.0
2017-Feb-23 02:32N 17°01' W 061°50'0 0.0
2017-Feb-23 01:32N 17°01' W 061°50'0 0.0
2017-Feb-23 00:29N 17°01' W 061°50'0 0.0
2017-Feb-22 23:32N 17°01' W 061°50'0 0.0
2017-Feb-22 22:32N 17°01' W 061°50'0 0.0
2017-Feb-22 21:32N 17°01' W 061°50'0 0.2
2017-Feb-22 20:31N 17°01' W 061°50'0 0.0
2017-Feb-22 19:31N 17°01' W 061°50'0 0.0
2017-Feb-22 18:31N 17°01' W 061°50'0 0.0
2017-Feb-22 17:31N 17°01' W 061°50'0 0.0
2017-Feb-22 16:31N 17°01' W 061°50'0 0.0
2017-Feb-22 15:31N 17°01' W 061°50'0 0.0
2017-Feb-22 14:31N 17°01' W 061°50'0 0.0
2017-Feb-22 13:31N 17°01' W 061°50'0 0.0
2017-Feb-22 12:31N 17°01' W 061°50'0 0.0
2017-Feb-22 11:31N 17°01' W 061°50'0 0.0
2017-Feb-22 10:31N 17°01' W 061°50'0 0.0
2017-Feb-22 09:31N 17°01' W 061°50'0 0.0
2017-Feb-22 08:31N 17°01' W 061°50'0 0.0
2017-Feb-22 07:31N 17°01' W 061°50'0 0.0
2017-Feb-22 06:31N 17°01' W 061°50'0 0.0
2017-Feb-22 05:31N 17°01' W 061°50'0 0.0
2017-Feb-22 04:31N 17°01' W 061°50'0 0.0
2017-Feb-22 03:31N 17°01' W 061°50'0 0.0
2017-Feb-22 02:31N 17°01' W 061°50'0 0.0
2017-Feb-22 01:31N 17°01' W 061°50'0 0.0
2017-Feb-22 00:31N 17°01' W 061°50'0 0.0
2017-Feb-21 23:31N 17°01' W 061°50'0 0.4
2017-Feb-21 22:33N 17°01' W 061°50'6 5.5
2017-Feb-21 21:31N 17°05' W 061°53'0 0.0
2017-Feb-21 20:25N 17°05' W 061°53'0 0.0
2017-Feb-21 19:31N 17°05' W 061°53'0 0.0
2017-Feb-21 16:31N 17°05' W 061°53'0 0.0
2017-Feb-21 15:31N 17°05' W 061°53'0 0.0
2017-Feb-21 14:31N 17°05' W 061°53'0 0.0
2017-Feb-21 13:31N 17°05' W 061°53'0 0.0
2017-Feb-21 12:31N 17°05' W 061°53'0 0.0
2017-Feb-21 11:31N 17°05' W 061°53'0 0.0
2017-Feb-21 10:31N 17°05' W 061°53'0 0.0
2017-Feb-21 09:31N 17°05' W 061°53'0 0.0
2017-Feb-21 08:31N 17°05' W 061°53'0 0.0
2017-Feb-21 07:31N 17°05' W 061°53'0 0.0
2017-Feb-21 06:31N 17°05' W 061°53'0 0.0
2017-Feb-21 05:31N 17°05' W 061°53'0 0.0
2017-Feb-21 04:31N 17°05' W 061°53'0 0.0
2017-Feb-21 03:31N 17°05' W 061°53'0 0.0
2017-Feb-21 02:33N 17°05' W 061°53'0 0.0
2017-Feb-21 01:33N 17°05' W 061°53'0 0.0
2017-Feb-21 00:34N 17°05' W 061°53'0 0.0
2017-Feb-20 23:33N 17°05' W 061°53'0 0.0
2017-Feb-20 22:33N 17°05' W 061°53'1 1.4
2017-Feb-20 21:34N 17°06' W 061°55'8 8.2
2017-Feb-20 20:33N 17°10' W 061°47'2 1.7
2017-Feb-20 19:32N 17°09' W 061°46'0 0.0
2017-Feb-20 18:32N 17°09' W 061°46'0 0.0
2017-Feb-20 17:32N 17°09' W 061°46'0 0.0
2017-Feb-20 16:31N 17°09' W 061°46'0 0.0
2017-Feb-20 15:31N 17°09' W 061°46'0 0.0
2017-Feb-20 14:31N 17°09' W 061°46'0 0.0
2017-Feb-20 13:32N 17°09' W 061°46'0 0.0
2017-Feb-20 12:32N 17°09' W 061°46'0 0.0
2017-Feb-20 11:32N 17°09' W 061°46'0 0.0
2017-Feb-20 10:32N 17°09' W 061°46'0 0.0
2017-Feb-20 09:32N 17°09' W 061°46'0 0.0
2017-Feb-20 08:32N 17°09' W 061°46'0 0.0
2017-Feb-20 07:32N 17°09' W 061°46'0 0.0
2017-Feb-20 06:32N 17°09' W 061°46'0 0.0
2017-Feb-20 05:32N 17°09' W 061°46'0 0.0
2017-Feb-20 04:32N 17°09' W 061°46'0 0.0
2017-Feb-20 03:32N 17°09' W 061°46'0 0.0
2017-Feb-20 02:32N 17°09' W 061°46'0 0.0
2017-Feb-20 01:32N 17°09' W 061°46'0 0.0
2017-Feb-20 00:31N 17°09' W 061°46'0 0.0
2017-Feb-19 23:31N 17°09' W 061°46'0 0.0
2017-Feb-19 22:31N 17°09' W 061°46'0 0.0
2017-Feb-19 21:31N 17°09' W 061°46'0 0.0
2017-Feb-19 20:31N 17°09' W 061°46'0 0.0
2017-Feb-19 19:31N 17°09' W 061°46'0 0.0
2017-Feb-19 18:31N 17°09' W 061°46'0 0.0
2017-Feb-19 17:32N 17°09' W 061°46'0 0.0
2017-Feb-19 16:31N 17°09' W 061°46'0 0.0
2017-Feb-19 15:28N 17°09' W 061°46'0 0.0
2017-Feb-19 14:28N 17°09' W 061°46'0 0.0
2017-Feb-19 13:31N 17°09' W 061°46'0 0.0
2017-Feb-19 12:31N 17°09' W 061°46'0 0.0
2017-Feb-19 11:28N 17°09' W 061°46'0 0.0
2017-Feb-19 10:31N 17°09' W 061°46'0 0.0
2017-Feb-19 09:22N 17°09' W 061°46'0 0.0
2017-Feb-19 08:28N 17°09' W 061°46'0 0.0
2017-Feb-19 07:32N 17°09' W 061°46'0 0.0
2017-Feb-19 06:31N 17°09' W 061°46'0 0.0
2017-Feb-19 05:31N 17°09' W 061°46'0 0.0
2017-Feb-19 04:31N 17°09' W 061°46'0 0.0
2017-Feb-19 03:32N 17°09' W 061°46'0 0.0
2017-Feb-19 02:31N 17°09' W 061°46'0 0.0
2017-Feb-19 01:31N 17°09' W 061°46'0 0.0
2017-Feb-19 00:31N 17°09' W 061°46'0 0.0
2017-Feb-18 23:31N 17°09' W 061°46'0 0.0
2017-Feb-18 22:31N 17°09' W 061°46'0 0.0
2017-Feb-18 21:28N 17°09' W 061°46'0 0.0
2017-Feb-18 20:31N 17°09' W 061°46'0 0.0
2017-Feb-18 19:31N 17°09' W 061°46'0 0.0
2017-Feb-18 18:31N 17°09' W 061°46'0 0.0
2017-Feb-18 17:31N 17°09' W 061°46'0 0.0
2017-Feb-18 16:33N 17°09' W 061°46'3 2.6
2017-Feb-18 15:33N 17°11' W 061°48'8 8.0
2017-Feb-18 14:33N 17°06' W 061°55'8 7.8
2017-Feb-18 13:34N 17°00' W 061°50'4 3.7
2017-Feb-18 12:33N 17°01' W 061°46'0 0.0
2017-Feb-18 11:33N 17°01' W 061°46'0 0.0
2017-Feb-18 10:33N 17°01' W 061°46'0 0.0
2017-Feb-18 09:33N 17°01' W 061°46'0 0.0
2017-Feb-18 08:33N 17°01' W 061°46'0 0.0
2017-Feb-18 07:33N 17°01' W 061°46'0 0.0
2017-Feb-18 06:33N 17°01' W 061°46'0 0.0
2017-Feb-18 05:33N 17°01' W 061°46'0 0.0
2017-Feb-18 04:33N 17°01' W 061°46'0 0.0
2017-Feb-18 03:33N 17°01' W 061°46'0 0.0
2017-Feb-18 02:33N 17°01' W 061°46'0 0.0
2017-Feb-18 01:33N 17°01' W 061°46'0 0.0
2017-Feb-18 00:33N 17°01' W 061°46'0 0.0
2017-Feb-17 23:33N 17°01' W 061°46'0 0.0
2017-Feb-17 22:34N 17°01' W 061°46'0 0.0
2017-Feb-17 21:33N 17°01' W 061°46'0 0.0
2017-Feb-17 20:33N 17°01' W 061°46'0 0.0
2017-Feb-17 19:33N 17°01' W 061°46'0 0.0
2017-Feb-17 18:34N 17°01' W 061°46'0 0.0
2017-Feb-17 17:33N 17°01' W 061°46'0 0.0
2017-Feb-17 16:33N 17°01' W 061°46'0 0.0
2017-Feb-17 15:33N 17°01' W 061°46'0 0.0
2017-Feb-17 14:33N 17°01' W 061°46'0 0.0
2017-Feb-17 13:33N 17°01' W 061°46'0 0.0
2017-Feb-17 12:33N 17°01' W 061°46'0 0.0
2017-Feb-17 11:33N 17°01' W 061°46'0 0.0
2017-Feb-17 10:33N 17°01' W 061°46'0 0.0
2017-Feb-17 09:33N 17°01' W 061°46'0 0.0
2017-Feb-17 08:33N 17°01' W 061°46'0 0.0
2017-Feb-17 07:33N 17°01' W 061°46'0 0.0
2017-Feb-17 06:33N 17°01' W 061°46'0 0.0
2017-Feb-17 05:33N 17°01' W 061°46'0 0.0
2017-Feb-17 04:33N 17°01' W 061°46'0 0.0
2017-Feb-17 03:33N 17°01' W 061°46'0 0.0
2017-Feb-17 02:33N 17°01' W 061°46'0 0.0
2017-Feb-17 01:33N 17°01' W 061°46'0 0.0
2017-Feb-17 00:33N 17°01' W 061°46'0 0.0
2017-Feb-16 23:33N 17°01' W 061°46'0 0.0
2017-Feb-16 22:33N 17°01' W 061°46'0 0.0
2017-Feb-16 21:33N 17°01' W 061°46'0 0.0
2017-Feb-16 20:33N 17°01' W 061°46'0 0.0
2017-Feb-16 19:33N 17°01' W 061°46'0 0.0
2017-Feb-16 18:33N 17°01' W 061°46'3 3.2
2017-Feb-16 17:33N 17°00' W 061°49'1 1.1
2017-Feb-16 16:33N 17°01' W 061°50'0 0.0
2017-Feb-16 15:33N 17°01' W 061°50'0 0.0
2017-Feb-16 14:33N 17°01' W 061°50'0 0.0
2017-Feb-16 13:33N 17°01' W 061°50'3 2.9
2017-Feb-16 12:32N 17°01' W 061°47'0 0.0
2017-Feb-16 11:32N 17°01' W 061°47'0 0.0
2017-Feb-16 10:32N 17°01' W 061°47'0 0.0
2017-Feb-16 09:32N 17°01' W 061°47'0 0.0
2017-Feb-16 08:32N 17°01' W 061°47'0 0.0
2017-Feb-16 07:32N 17°01' W 061°47'0 0.0
2017-Feb-16 06:32N 17°01' W 061°47'0 0.0
2017-Feb-16 05:32N 17°01' W 061°47'0 0.0
2017-Feb-16 04:32N 17°01' W 061°47'0 0.0
2017-Feb-16 03:32N 17°01' W 061°47'0 0.0
2017-Feb-16 02:32N 17°01' W 061°47'0 0.0
2017-Feb-16 01:32N 17°01' W 061°47'0 0.0
2017-Feb-16 00:32N 17°01' W 061°47'0 0.0
2017-Feb-15 23:32N 17°01' W 061°47'0 0.0
2017-Feb-15 22:32N 17°01' W 061°47'0 0.0
2017-Feb-15 21:32N 17°01' W 061°47'1 0.9
2017-Feb-15 20:33N 17°01' W 061°48'0 0.0
2017-Feb-15 19:33N 17°01' W 061°48'0 0.0
2017-Feb-15 18:30N 17°01' W 061°48'0 0.0
2017-Feb-15 17:33N 17°01' W 061°48'2 2.4
2017-Feb-15 16:33N 17°00' W 061°50'6 6.1
2017-Feb-15 15:33N 17°05' W 061°54'0 0.4
2017-Feb-15 14:31N 17°06' W 061°54'0 0.0
2017-Feb-15 13:32N 17°06' W 061°54'0 0.0
2017-Feb-15 12:28N 17°06' W 061°54'0 0.0
2017-Feb-15 11:31N 17°06' W 061°54'0 0.0
2017-Feb-15 10:31N 17°06' W 061°54'0 0.0
2017-Feb-15 09:31N 17°06' W 061°54'0 0.0
2017-Feb-15 08:31N 17°06' W 061°54'0 0.0
2017-Feb-15 07:31N 17°06' W 061°54'0 0.0
2017-Feb-15 06:31N 17°06' W 061°54'0 0.0
2017-Feb-15 05:31N 17°06' W 061°54'0 0.0
2017-Feb-15 04:31N 17°06' W 061°54'0 0.0
2017-Feb-15 03:31N 17°06' W 061°54'0 0.0
2017-Feb-15 02:31N 17°06' W 061°54'0 0.0
2017-Feb-15 01:31N 17°06' W 061°54'0 0.0
2017-Feb-15 00:31N 17°06' W 061°54'0 0.0
2017-Feb-14 23:31N 17°06' W 061°54'5 5.3
2017-Feb-14 22:33N 17°10' W 061°51'  
Track history (hours):
 
Tides and Currents Weather Stations Pressure Air Temp Water Temp Dewpoint Dewpoint Depression Visibility Wind Speed Wind Dir Waves Ship Positions

Knickerbocker

Owner: Christopher Corp., Newport, RI. More information available from US FCC via Universal Licensing System and Coast Guard Vessel Documentation Center.

Last reported at 2017-Feb-24 21:34 UTC. Time now 2017-Feb-24 21:38 UTC.
Position N 17°01' W 061°46'.

Length 36 m; draft 3.6 m.

Type: Sailing vessel. MMSI: 367079960.

Date/timePositionNaut miles runAvg speedWind from/ knotsBaromVisibWave heightAir tempDewpointWater temp
2017-Feb-24 21:34N 17°01' W 061°46'1 1.5
2017-Feb-24 20:33N 16°60' W 061°45'6 6.0
2017-Feb-24 19:33N 17°04' W 061°41'0 0.3
2017-Feb-24 18:32N 17°05' W 061°41'0 0.0
2017-Feb-24 17:31N 17°05' W 061°41'0 0.0
2017-Feb-24 16:32N 17°05' W 061°41'0 0.0
2017-Feb-24 15:31N 17°05' W 061°41'0 0.0
2017-Feb-24 14:31N 17°05' W 061°41'0 0.0
2017-Feb-24 13:32N 17°05' W 061°41'0 0.0
2017-Feb-24 12:31N 17°05' W 061°41'0 0.0
2017-Feb-24 11:31N 17°05' W 061°41'0 0.0
2017-Feb-24 10:31N 17°05' W 061°41'0 0.0
2017-Feb-24 09:32N 17°05' W 061°41'0 0.0
2017-Feb-24 08:32N 17°05' W 061°41'0 0.0
2017-Feb-24 07:31N 17°05' W 061°41'0 0.0
2017-Feb-24 06:32N 17°05' W 061°41'0 0.0
2017-Feb-24 05:31N 17°05' W 061°41'0 0.0
2017-Feb-24 04:31N 17°05' W 061°41'0 0.0
2017-Feb-24 03:31N 17°05' W 061°41'0 0.0
2017-Feb-24 02:31N 17°05' W 061°41'0 0.0
2017-Feb-24 01:25N 17°05' W 061°41'0 0.0
2017-Feb-24 00:29N 17°05' W 061°41'0 0.0
2017-Feb-23 23:31N 17°05' W 061°41'0 0.0
2017-Feb-23 22:32N 17°05' W 061°41'0 0.0
2017-Feb-23 21:31N 17°05' W 061°41'0 0.0
2017-Feb-23 20:32N 17°05' W 061°41'0 0.0
2017-Feb-23 19:31N 17°05' W 061°41'0 0.0
2017-Feb-23 18:31N 17°05' W 061°41'0 0.0
2017-Feb-23 17:31N 17°05' W 061°41'0 0.0
2017-Feb-23 16:31N 17°05' W 061°41'0 0.0
2017-Feb-23 15:31N 17°05' W 061°41'0 0.0
2017-Feb-23 14:31N 17°05' W 061°41'1 0.8
2017-Feb-23 13:33N 17°04' W 061°40'7 7.4
2017-Feb-23 12:33N 16°60' W 061°47'3 3.3
2017-Feb-23 11:32N 17°01' W 061°50'0 0.0
2017-Feb-23 10:32N 17°01' W 061°50'0 0.0
2017-Feb-23 09:32N 17°01' W 061°50'0 0.0
2017-Feb-23 08:32N 17°01' W 061°50'0 0.0
2017-Feb-23 07:32N 17°01' W 061°50'0 0.0
2017-Feb-23 06:32N 17°01' W 061°50'0 0.0
2017-Feb-23 05:32N 17°01' W 061°50'0 0.0
2017-Feb-23 04:32N 17°01' W 061°50'0 0.0
2017-Feb-23 03:32N 17°01' W 061°50'0 0.0
2017-Feb-23 02:32N 17°01' W 061°50'0 0.0
2017-Feb-23 01:32N 17°01' W 061°50'0 0.0
2017-Feb-23 00:29N 17°01' W 061°50'0 0.0
2017-Feb-22 23:32N 17°01' W 061°50'0 0.0
2017-Feb-22 22:32N 17°01' W 061°50'0 0.0
2017-Feb-22 21:32N 17°01' W 061°50'0 0.2
2017-Feb-22 20:31N 17°01' W 061°50'0 0.0
2017-Feb-22 19:31N 17°01' W 061°50'0 0.0
2017-Feb-22 18:31N 17°01' W 061°50'0 0.0
2017-Feb-22 17:31N 17°01' W 061°50'0 0.0
2017-Feb-22 16:31N 17°01' W 061°50'0 0.0
2017-Feb-22 15:31N 17°01' W 061°50'0 0.0
2017-Feb-22 14:31N 17°01' W 061°50'0 0.0
2017-Feb-22 13:31N 17°01' W 061°50'0 0.0
2017-Feb-22 12:31N 17°01' W 061°50'0 0.0
2017-Feb-22 11:31N 17°01' W 061°50'0 0.0
2017-Feb-22 10:31N 17°01' W 061°50'0 0.0
2017-Feb-22 09:31N 17°01' W 061°50'0 0.0
2017-Feb-22 08:31N 17°01' W 061°50'0 0.0
2017-Feb-22 07:31N 17°01' W 061°50'0 0.0
2017-Feb-22 06:31N 17°01' W 061°50'0 0.0
2017-Feb-22 05:31N 17°01' W 061°50'0 0.0
2017-Feb-22 04:31N 17°01' W 061°50'0 0.0
2017-Feb-22 03:31N 17°01' W 061°50'0 0.0
2017-Feb-22 02:31N 17°01' W 061°50'0 0.0
2017-Feb-22 01:31N 17°01' W 061°50'0 0.0
2017-Feb-22 00:31N 17°01' W 061°50'0 0.0
2017-Feb-21 23:31N 17°01' W 061°50'0 0.4
2017-Feb-21 22:33N 17°01' W 061°50'6 5.5
2017-Feb-21 21:31N 17°05' W 061°53'0 0.0
2017-Feb-21 20:25N 17°05' W 061°53'0 0.0
2017-Feb-21 19:31N 17°05' W 061°53'0 0.0
2017-Feb-21 16:31N 17°05' W 061°53'0 0.0
2017-Feb-21 15:31N 17°05' W 061°53'0 0.0
2017-Feb-21 14:31N 17°05' W 061°53'0 0.0
2017-Feb-21 13:31N 17°05' W 061°53'0 0.0
2017-Feb-21 12:31N 17°05' W 061°53'0 0.0
2017-Feb-21 11:31N 17°05' W 061°53'0 0.0
2017-Feb-21 10:31N 17°05' W 061°53'0 0.0
2017-Feb-21 09:31N 17°05' W 061°53'0 0.0
2017-Feb-21 08:31N 17°05' W 061°53'0 0.0
2017-Feb-21 07:31N 17°05' W 061°53'0 0.0
2017-Feb-21 06:31N 17°05' W 061°53'0 0.0
2017-Feb-21 05:31N 17°05' W 061°53'0 0.0
2017-Feb-21 04:31N 17°05' W 061°53'0 0.0
2017-Feb-21 03:31N 17°05' W 061°53'0 0.0
2017-Feb-21 02:33N 17°05' W 061°53'0 0.0
2017-Feb-21 01:33N 17°05' W 061°53'0 0.0
2017-Feb-21 00:34N 17°05' W 061°53'0 0.0
2017-Feb-20 23:33N 17°05' W 061°53'0 0.0
2017-Feb-20 22:33N 17°05' W 061°53'1 1.4
2017-Feb-20 21:34N 17°06' W 061°55'8 8.2
2017-Feb-20 20:33N 17°10' W 061°47'2 1.7
2017-Feb-20 19:32N 17°09' W 061°46'0 0.0
2017-Feb-20 18:32N 17°09' W 061°46'0 0.0
2017-Feb-20 17:32N 17°09' W 061°46'0 0.0
2017-Feb-20 16:31N 17°09' W 061°46'0 0.0
2017-Feb-20 15:31N 17°09' W 061°46'0 0.0
2017-Feb-20 14:31N 17°09' W 061°46'0 0.0
2017-Feb-20 13:32N 17°09' W 061°46'0 0.0
2017-Feb-20 12:32N 17°09' W 061°46'0 0.0
2017-Feb-20 11:32N 17°09' W 061°46'0 0.0
2017-Feb-20 10:32N 17°09' W 061°46'0 0.0
2017-Feb-20 09:32N 17°09' W 061°46'0 0.0
2017-Feb-20 08:32N 17°09' W 061°46'0 0.0
2017-Feb-20 07:32N 17°09' W 061°46'0 0.0
2017-Feb-20 06:32N 17°09' W 061°46'0 0.0
2017-Feb-20 05:32N 17°09' W 061°46'0 0.0
2017-Feb-20 04:32N 17°09' W 061°46'0 0.0
2017-Feb-20 03:32N 17°09' W 061°46'0 0.0
2017-Feb-20 02:32N 17°09' W 061°46'0 0.0
2017-Feb-20 01:32N 17°09' W 061°46'0 0.0
2017-Feb-20 00:31N 17°09' W 061°46'0 0.0
2017-Feb-19 23:31N 17°09' W 061°46'0 0.0
2017-Feb-19 22:31N 17°09' W 061°46'0 0.0
2017-Feb-19 21:31N 17°09' W 061°46'0 0.0
2017-Feb-19 20:31N 17°09' W 061°46'0 0.0
2017-Feb-19 19:31N 17°09' W 061°46'0 0.0
2017-Feb-19 18:31N 17°09' W 061°46'0 0.0
2017-Feb-19 17:32N 17°09' W 061°46'0 0.0
2017-Feb-19 16:31N 17°09' W 061°46'0 0.0
2017-Feb-19 15:28N 17°09' W 061°46'0 0.0
2017-Feb-19 14:28N 17°09' W 061°46'0 0.0
2017-Feb-19 13:31N 17°09' W 061°46'0 0.0
2017-Feb-19 12:31N 17°09' W 061°46'0 0.0
2017-Feb-19 11:28N 17°09' W 061°46'0 0.0
2017-Feb-19 10:31N 17°09' W 061°46'0 0.0
2017-Feb-19 09:22N 17°09' W 061°46'0 0.0
2017-Feb-19 08:28N 17°09' W 061°46'0 0.0
2017-Feb-19 07:32N 17°09' W 061°46'0 0.0
2017-Feb-19 06:31N 17°09' W 061°46'0 0.0
2017-Feb-19 05:31N 17°09' W 061°46'0 0.0
2017-Feb-19 04:31N 17°09' W 061°46'0 0.0
2017-Feb-19 03:32N 17°09' W 061°46'0 0.0
2017-Feb-19 02:31N 17°09' W 061°46'0 0.0
2017-Feb-19 01:31N 17°09' W 061°46'0 0.0
2017-Feb-19 00:31N 17°09' W 061°46'0 0.0
2017-Feb-18 23:31N 17°09' W 061°46'0 0.0
2017-Feb-18 22:31N 17°09' W 061°46'0 0.0
2017-Feb-18 21:28N 17°09' W 061°46'0 0.0
2017-Feb-18 20:31N 17°09' W 061°46'0 0.0
2017-Feb-18 19:31N 17°09' W 061°46'0 0.0
2017-Feb-18 18:31N 17°09' W 061°46'0 0.0
2017-Feb-18 17:31N 17°09' W 061°46'0 0.0
2017-Feb-18 16:33N 17°09' W 061°46'3 2.6
2017-Feb-18 15:33N 17°11' W 061°48'8 8.0
2017-Feb-18 14:33N 17°06' W 061°55'8 7.8
2017-Feb-18 13:34N 17°00' W 061°50'4 3.7
2017-Feb-18 12:33N 17°01' W 061°46'0 0.0
2017-Feb-18 11:33N 17°01' W 061°46'0 0.0
2017-Feb-18 10:33N 17°01' W 061°46'0 0.0
2017-Feb-18 09:33N 17°01' W 061°46'0 0.0
2017-Feb-18 08:33N 17°01' W 061°46'0 0.0
2017-Feb-18 07:33N 17°01' W 061°46'0 0.0
2017-Feb-18 06:33N 17°01' W 061°46'0 0.0
2017-Feb-18 05:33N 17°01' W 061°46'0 0.0
2017-Feb-18 04:33N 17°01' W 061°46'0 0.0
2017-Feb-18 03:33N 17°01' W 061°46'0 0.0
2017-Feb-18 02:33N 17°01' W 061°46'0 0.0
2017-Feb-18 01:33N 17°01' W 061°46'0 0.0
2017-Feb-18 00:33N 17°01' W 061°46'0 0.0
2017-Feb-17 23:33N 17°01' W 061°46'0 0.0
2017-Feb-17 22:34N 17°01' W 061°46'0 0.0
2017-Feb-17 21:33N 17°01' W 061°46'0 0.0
2017-Feb-17 20:33N 17°01' W 061°46'0 0.0
2017-Feb-17 19:33N 17°01' W 061°46'0 0.0
2017-Feb-17 18:34N 17°01' W 061°46'0 0.0
2017-Feb-17 17:33N 17°01' W 061°46'0 0.0
2017-Feb-17 16:33N 17°01' W 061°46'0 0.0
2017-Feb-17 15:33N 17°01' W 061°46'0 0.0
2017-Feb-17 14:33N 17°01' W 061°46'0 0.0
2017-Feb-17 13:33N 17°01' W 061°46'0 0.0
2017-Feb-17 12:33N 17°01' W 061°46'0 0.0
2017-Feb-17 11:33N 17°01' W 061°46'0 0.0
2017-Feb-17 10:33N 17°01' W 061°46'0 0.0
2017-Feb-17 09:33N 17°01' W 061°46'0 0.0
2017-Feb-17 08:33N 17°01' W 061°46'0 0.0
2017-Feb-17 07:33N 17°01' W 061°46'0 0.0
2017-Feb-17 06:33N 17°01' W 061°46'0 0.0
2017-Feb-17 05:33N 17°01' W 061°46'0 0.0
2017-Feb-17 04:33N 17°01' W 061°46'0 0.0
2017-Feb-17 03:33N 17°01' W 061°46'0 0.0
2017-Feb-17 02:33N 17°01' W 061°46'0 0.0
2017-Feb-17 01:33N 17°01' W 061°46'0 0.0
2017-Feb-17 00:33N 17°01' W 061°46'0 0.0
2017-Feb-16 23:33N 17°01' W 061°46'0 0.0
2017-Feb-16 22:33N 17°01' W 061°46'0 0.0
2017-Feb-16 21:33N 17°01' W 061°46'0 0.0
2017-Feb-16 20:33N 17°01' W 061°46'0 0.0
2017-Feb-16 19:33N 17°01' W 061°46'0 0.0
2017-Feb-16 18:33N 17°01' W 061°46'3 3.2
2017-Feb-16 17:33N 17°00' W 061°49'1 1.1
2017-Feb-16 16:33N 17°01' W 061°50'0 0.0
2017-Feb-16 15:33N 17°01' W 061°50'0 0.0
2017-Feb-16 14:33N 17°01' W 061°50'0 0.0
2017-Feb-16 13:33N 17°01' W 061°50'3 2.9
2017-Feb-16 12:32N 17°01' W 061°47'0 0.0
2017-Feb-16 11:32N 17°01' W 061°47'0 0.0
2017-Feb-16 10:32N 17°01' W 061°47'0 0.0
2017-Feb-16 09:32N 17°01' W 061°47'0 0.0
2017-Feb-16 08:32N 17°01' W 061°47'0 0.0
2017-Feb-16 07:32N 17°01' W 061°47'0 0.0
2017-Feb-16 06:32N 17°01' W 061°47'0 0.0
2017-Feb-16 05:32N 17°01' W 061°47'0 0.0
2017-Feb-16 04:32N 17°01' W 061°47'0 0.0
2017-Feb-16 03:32N 17°01' W 061°47'0 0.0
2017-Feb-16 02:32N 17°01' W 061°47'0 0.0
2017-Feb-16 01:32N 17°01' W 061°47'0 0.0
2017-Feb-16 00:32N 17°01' W 061°47'0 0.0
2017-Feb-15 23:32N 17°01' W 061°47'0 0.0
2017-Feb-15 22:32N 17°01' W 061°47'0 0.0
2017-Feb-15 21:32N 17°01' W 061°47'1 0.9
2017-Feb-15 20:33N 17°01' W 061°48'0 0.0
2017-Feb-15 19:33N 17°01' W 061°48'0 0.0
2017-Feb-15 18:30N 17°01' W 061°48'0 0.0
2017-Feb-15 17:33N 17°01' W 061°48'2 2.4
2017-Feb-15 16:33N 17°00' W 061°50'6 6.1
2017-Feb-15 15:33N 17°05' W 061°54'0 0.4
2017-Feb-15 14:31N 17°06' W 061°54'0 0.0
2017-Feb-15 13:32N 17°06' W 061°54'0 0.0
2017-Feb-15 12:28N 17°06' W 061°54'0 0.0
2017-Feb-15 11:31N 17°06' W 061°54'0 0.0
2017-Feb-15 10:31N 17°06' W 061°54'0 0.0
2017-Feb-15 09:31N 17°06' W 061°54'0 0.0
2017-Feb-15 08:31N 17°06' W 061°54'0 0.0
2017-Feb-15 07:31N 17°06' W 061°54'0 0.0
2017-Feb-15 06:31N 17°06' W 061°54'0 0.0
2017-Feb-15 05:31N 17°06' W 061°54'0 0.0
2017-Feb-15 04:31N 17°06' W 061°54'0 0.0
2017-Feb-15 03:31N 17°06' W 061°54'0 0.0
2017-Feb-15 02:31N 17°06' W 061°54'0 0.0
2017-Feb-15 01:31N 17°06' W 061°54'0 0.0
2017-Feb-15 00:31N 17°06' W 061°54'0 0.0
2017-Feb-14 23:31N 17°06' W 061°54'5 5.3
2017-Feb-14 22:33N 17°10' W 061°51'  

Dump ship's entire track history